Time;durP1;ratioP1;P1;durP2;ratioP2;P2;SDS_P1;SDS_P2;PMS_P1;PMS_P2;Temp;Humidity;BMP_temperature;BMP_pressure;BME280_temperature;BME280_humidity;BME280_pressure;Samples;Min_cycle;Max_cycle;Signal;HPM_P1;HPM_P2
2021/12/24 00:01:49;;;;;;;30.60;22.93;;;0.40;99.90;;;;;;5031083;28;20188;-71
2021/12/24 00:04:16;;;;;;;33.80;22.77;;;0.40;99.90;;;;;;5023751;28;20651;-72
2021/12/24 00:06:41;;;;;;;40.20;21.57;;;0.30;99.90;;;;;;5031406;28;20630;-71
2021/12/24 00:09:07;;;;;;;30.03;21.57;;;0.40;99.90;;;;;;5028982;28;20280;-70
2021/12/24 00:11:34;;;;;;;33.17;21.40;;;0.50;99.90;;;;;;5023481;28;20204;-70
2021/12/24 00:14:02;;;;;;;32.50;22.43;;;0.50;99.90;;;;;;5029756;28;20184;-71
2021/12/24 00:16:39;;;;;;;31.03;23.73;;;0.40;99.90;;;;;;5024216;28;20177;-71
2021/12/24 00:35:28;;;;;;;30.37;22.00;;;0.40;99.90;;;;;;5029633;28;20187;-71
2021/12/24 00:37:54;;;;;;;30.03;20.97;;;0.30;99.90;;;;;;5024484;28;20580;-70
2021/12/24 00:40:20;;;;;;;31.73;22.83;;;0.40;99.90;;;;;;5029171;28;20204;-71
2021/12/24 00:42:52;;;;;;;32.63;22.43;;;0.40;99.90;;;;;;5026760;28;20280;-70
2021/12/24 00:45:21;;;;;;;35.07;22.33;;;0.40;99.90;;;;;;5023575;28;20192;-72
2021/12/24 00:47:50;;;;;;;32.47;23.03;;;0.40;99.90;;;;;;5024529;28;20181;-71
2021/12/24 00:50:22;;;;;;;29.77;21.63;;;0.40;99.90;;;;;;5031462;28;20683;-71
2021/12/24 00:52:52;;;;;;;30.63;21.60;;;0.50;99.90;;;;;;5023036;28;20177;-71
2021/12/24 00:55:24;;;;;;;31.13;21.47;;;0.50;99.90;;;;;;5025194;28;20664;-71
2021/12/24 00:57:54;;;;;;;30.30;21.63;;;0.50;99.90;;;;;;5029718;28;20188;-71
2021/12/24 01:00:27;;;;;;;34.60;23.23;;;0.50;99.90;;;;;;5027872;28;20341;-70
2021/12/24 01:02:54;;;;;;;30.50;22.67;;;0.50;99.90;;;;;;5022959;28;20596;-71
2021/12/24 01:05:22;;;;;;;27.10;20.13;;;0.50;99.90;;;;;;5025747;28;20526;-72
2021/12/24 01:07:49;;;;;;;32.40;21.67;;;0.50;99.90;;;;;;5021189;28;20178;-71
2021/12/24 01:10:21;;;;;;;29.63;20.87;;;0.60;99.90;;;;;;5026623;28;20277;-71
2021/12/24 01:12:47;;;;;;;28.63;21.53;;;0.60;99.90;;;;;;5027907;28;20184;-71
2021/12/24 01:15:15;;;;;;;28.67;22.17;;;0.50;99.90;;;;;;5053113;28;20190;-71
2021/12/24 01:17:54;;;;;;;31.07;21.97;;;0.60;99.90;;;;;;5021886;28;20231;-71
2021/12/24 01:25:33;;;;;;;29.70;20.47;;;0.70;99.90;;;;;;5026130;28;20182;-71
2021/12/24 01:42:39;;;;;;;26.53;19.50;;;0.70;99.90;;;;;;5026656;28;20188;-71
2021/12/24 01:44:01;;;;;;;26.10;17.83;;;0.70;99.90;;;;;;5030026;28;20191;-71
2021/12/24 01:46:26;;;;;;;26.70;18.90;;;0.70;99.90;;;;;;5033897;28;20185;-71
2021/12/24 01:48:52;;;;;;;23.93;17.97;;;0.70;99.90;;;;;;5029248;28;20222;-71
2021/12/24 01:51:18;;;;;;;26.70;19.03;;;0.80;99.90;;;;;;5025467;28;20246;-71
2021/12/24 01:53:44;;;;;;;25.80;20.27;;;0.80;99.90;;;;;;5031105;28;20226;-71
2021/12/24 01:56:09;;;;;;;28.23;18.73;;;0.80;99.90;;;;;;5019604;28;20259;-71
2021/12/24 01:58:36;;;;;;;26.73;19.87;;;0.70;99.90;;;;;;5031204;28;20188;-70
2021/12/24 02:01:02;;;;;;;28.23;19.00;;;0.80;99.90;;;;;;5030993;28;20703;-70
2021/12/24 02:03:27;;;;;;;29.50;20.20;;;0.80;99.90;;;;;;5024406;28;20269;-70
2021/12/24 02:05:53;;;;;;;28.03;20.37;;;0.80;99.90;;;;;;5032170;28;20543;-70
2021/12/24 02:08:19;;;;;;;25.40;19.23;;;0.80;99.90;;;;;;5024241;28;20648;-70
2021/12/24 02:10:45;;;;;;;31.40;20.77;;;0.70;99.90;;;;;;5016930;28;20687;-71
2021/12/24 02:13:11;;;;;;;29.23;19.83;;;0.70;99.90;;;;;;5024364;28;20179;-71
2021/12/24 02:28:41;;;;;;;24.57;18.27;;;0.90;99.90;;;;;;5028514;28;20661;-72
2021/12/24 02:31:22;;;;;;;28.43;20.53;;;0.80;99.90;;;;;;5023350;28;20288;-71
2021/12/24 02:33:48;;;;;;;28.27;19.97;;;0.80;99.90;;;;;;5044683;28;20188;-70
2021/12/24 02:36:14;;;;;;;30.80;19.33;;;0.90;99.90;;;;;;5031539;28;20190;-70
2021/12/24 02:38:41;;;;;;;28.30;20.93;;;0.80;99.90;;;;;;5025546;28;20271;-71
2021/12/24 02:41:09;;;;;;;30.63;22.37;;;0.70;99.90;;;;;;5026348;28;20643;-71
2021/12/24 02:43:36;;;;;;;28.63;21.20;;;0.70;99.90;;;;;;5024368;28;20192;-70
2021/12/24 02:46:09;;;;;;;29.47;20.50;;;0.70;99.90;;;;;;5021433;28;20610;-70
2021/12/24 02:53:59;;;;;;;32.83;21.87;;;0.80;99.90;;;;;;5027968;28;20598;-71
2021/12/24 02:56:34;;;;;;;31.27;21.53;;;0.80;99.90;;;;;;5022951;28;20670;-71
2021/12/24 02:59:03;;;;;;;27.20;18.67;;;0.80;99.90;;;;;;5028186;28;20192;-71
2021/12/24 03:01:32;;;;;;;28.80;20.27;;;0.90;99.90;;;;;;5025265;28;20677;-71
2021/12/24 03:04:54;;;;;;;27.63;19.60;;;0.90;99.90;;;;;;5020412;28;20276;-71
2021/12/24 03:07:19;;;;;;;28.97;21.37;;;1.00;99.90;;;;;;5019291;28;20863;-71
2021/12/24 03:09:45;;;;;;;30.90;20.23;;;0.90;99.90;;;;;;5033077;28;20282;-71
2021/12/24 03:12:11;;;;;;;26.73;20.37;;;1.00;99.90;;;;;;5031561;28;20180;-71
2021/12/24 03:14:36;;;;;;;31.30;21.13;;;0.90;99.90;;;;;;5030905;28;20173;-71
2021/12/24 03:17:07;;;;;;;25.83;18.83;;;0.90;99.90;;;;;;5026722;28;20552;-71
2021/12/24 03:19:33;;;;;;;28.27;19.93;;;0.90;99.90;;;;;;5033981;28;20201;-71
2021/12/24 03:24:35;;;;;;;28.60;19.50;;;1.10;99.90;;;;;;5033604;28;20455;-71
2021/12/24 03:27:01;;;;;;;30.63;20.37;;;1.10;99.90;;;;;;5035906;28;20180;-70
2021/12/24 03:29:27;;;;;;;24.23;18.93;;;1.20;99.90;;;;;;5034011;28;20200;-71
2021/12/24 03:31:53;;;;;;;29.30;19.53;;;1.20;99.90;;;;;;5028624;28;20346;-71
2021/12/24 03:34:22;;;;;;;24.53;18.53;;;1.20;99.90;;;;;;5033076;28;20215;-74
2021/12/24 03:36:48;;;;;;;25.67;18.03;;;1.20;99.90;;;;;;5029055;28;20625;-71
2021/12/24 03:39:15;;;;;;;24.93;18.10;;;1.30;99.90;;;;;;5030525;28;20698;-71
2021/12/24 03:41:41;;;;;;;25.27;18.30;;;1.30;99.90;;;;;;5030442;28;20571;-71
2021/12/24 03:44:09;;;;;;;27.77;19.03;;;1.40;99.90;;;;;;5032947;28;20186;-71
2021/12/24 03:46:59;;;;;;;24.03;18.87;;;1.40;99.90;;;;;;5032073;28;20713;-71
2021/12/24 03:50:09;;;;;;;26.80;18.97;;;1.50;99.90;;;;;;5028328;28;20213;-71
2021/12/24 03:54:56;;;;;;;24.13;17.97;;;1.50;99.90;;;;;;5029858;28;20196;-72
2021/12/24 03:57:26;;;;;;;30.00;19.97;;;1.50;99.90;;;;;;5030617;28;20605;-71
2021/12/24 03:59:53;;;;;;;32.50;22.90;;;1.50;99.90;;;;;;5032514;28;20633;-71
2021/12/24 04:02:20;;;;;;;16.97;12.17;;;1.50;99.90;;;;;;5032946;28;20643;-71
2021/12/24 04:04:46;;;;;;;20.03;14.33;;;1.80;99.90;;;;;;5033771;28;20179;-71
2021/12/24 04:07:12;;;;;;;19.57;12.53;;;2.00;99.90;;;;;;5022495;28;20659;-72
2021/12/24 04:09:42;;;;;;;11.97;9.50;;;2.10;99.90;;;;;;5033963;28;20707;-71
2021/12/24 04:12:08;;;;;;;11.90;9.83;;;2.30;99.90;;;;;;5038859;28;20187;-71
2021/12/24 04:14:33;;;;;;;16.57;12.40;;;2.50;99.90;;;;;;5033440;28;20172;-71
2021/12/24 04:16:59;;;;;;;12.10;9.40;;;2.50;99.90;;;;;;5032321;28;20733;-71
2021/12/24 04:24:54;;;;;;;13.50;10.13;;;2.80;99.90;;;;;;5028428;28;20246;-71
2021/12/24 04:27:26;;;;;;;10.10;8.53;;;2.90;99.90;;;;;;5029629;28;20181;-71
2021/12/24 04:30:02;;;;;;;10.57;8.13;;;3.00;99.90;;;;;;5032219;28;20196;-72
2021/12/24 04:32:46;;;;;;;9.60;7.67;;;3.10;99.90;;;;;;5030285;28;20173;-72
2021/12/24 04:35:32;;;;;;;11.77;8.60;;;3.20;99.90;;;;;;5031870;28;20180;-71
2021/12/24 04:51:22;;;;;;;16.33;11.17;;;3.20;99.90;;;;;;5031814;28;20318;-71
2021/12/24 05:04:34;;;;;;;9.23;7.27;;;3.10;99.90;;;;;;5027354;28;20189;-71
2021/12/24 05:07:23;;;;;;;13.80;10.53;;;3.10;99.90;;;;;;5028711;28;20660;-71
2021/12/24 05:09:48;;;;;;;14.20;11.10;;;3.10;99.90;;;;;;5033214;28;20289;-71
2021/12/24 05:12:14;;;;;;;13.43;11.27;;;3.10;99.90;;;;;;5028152;28;21057;-71
2021/12/24 05:14:39;;;;;;;17.83;12.67;;;3.10;99.90;;;;;;5027707;28;20181;-70
2021/12/24 05:17:22;;;;;;;15.50;12.13;;;3.10;99.90;;;;;;5030202;28;20203;-72
2021/12/24 05:22:33;;;;;;;19.60;12.80;;;2.90;99.90;;;;;;5028377;28;20713;-71
2021/12/24 05:24:59;;;;;;;20.27;13.53;;;2.90;99.90;;;;;;5031316;28;20177;-71
2021/12/24 05:27:24;;;;;;;18.20;13.03;;;3.00;99.90;;;;;;5031125;28;20181;-71
2021/12/24 05:29:50;;;;;;;17.37;13.43;;;2.80;99.90;;;;;;5027877;28;20204;-72
2021/12/24 05:32:16;;;;;;;16.63;14.13;;;2.80;99.90;;;;;;5027409;28;20715;-71
2021/12/24 05:34:41;;;;;;;15.90;11.87;;;2.80;99.90;;;;;;5031157;28;20649;-72
2021/12/24 05:37:07;;;;;;;17.63;14.30;;;2.70;99.90;;;;;;5028029;28;20720;-71
2021/12/24 05:39:34;;;;;;;20.53;15.03;;;2.70;99.90;;;;;;5028204;28;20541;-71
2021/12/24 05:42:00;;;;;;;20.10;14.17;;;2.60;99.90;;;;;;5022629;28;20185;-71
2021/12/24 05:44:26;;;;;;;16.83;13.47;;;2.60;99.90;;;;;;5023925;28;20192;-71
2021/12/24 05:46:52;;;;;;;16.33;13.50;;;2.50;99.90;;;;;;5029340;28;20682;-71
2021/12/24 05:49:18;;;;;;;18.23;13.97;;;2.50;99.90;;;;;;5031009;28;20204;-71
2021/12/24 05:51:43;;;;;;;18.17;13.40;;;2.50;99.90;;;;;;5033619;28;20619;-71
2021/12/24 05:54:09;;;;;;;15.80;12.03;;;2.50;99.90;;;;;;5024950;28;20184;-72
2021/12/24 05:56:35;;;;;;;14.93;12.17;;;2.60;99.90;;;;;;5029541;28;20181;-71
2021/12/24 05:59:01;;;;;;;14.17;11.47;;;2.60;99.90;;;;;;5025689;28;20272;-72
2021/12/24 06:01:27;;;;;;;15.80;12.30;;;2.60;99.90;;;;;;5031653;28;20619;-72
2021/12/24 06:03:52;;;;;;;14.40;12.33;;;2.70;99.90;;;;;;5025276;28;20189;-72
2021/12/24 06:06:18;;;;;;;19.27;13.70;;;2.70;99.90;;;;;;5031425;28;20188;-71
2021/12/24 06:08:44;;;;;;;18.00;12.83;;;2.70;99.90;;;;;;5023049;28;20180;-71
2021/12/24 06:11:09;;;;;;;16.17;12.67;;;2.70;99.90;;;;;;5028226;28;20587;-71
2021/12/24 06:13:36;;;;;;;18.40;13.17;;;2.80;99.90;;;;;;5025783;28;20200;-71
2021/12/24 06:16:05;;;;;;;15.50;12.87;;;2.70;99.90;;;;;;5031169;28;20172;-71
2021/12/24 06:18:30;;;;;;;14.30;12.50;;;2.70;99.90;;;;;;5028042;28;20264;-71
2021/12/24 06:21:01;;;;;;;16.10;13.03;;;2.70;99.90;;;;;;5027736;28;20221;-72
2021/12/24 06:23:27;;;;;;;17.10;12.70;;;2.70;99.90;;;;;;5023829;28;20758;-72
2021/12/24 06:25:55;;;;;;;16.43;13.00;;;2.70;99.90;;;;;;5023208;28;20267;-70
2021/12/24 06:28:22;;;;;;;15.23;13.47;;;2.60;99.90;;;;;;5026989;28;20261;-71
2021/12/24 06:30:48;;;;;;;14.33;11.60;;;2.70;99.90;;;;;;5024210;28;20561;-71
2021/12/24 06:33:14;;;;;;;13.73;11.90;;;2.70;99.90;;;;;;5031938;28;20192;-71
2021/12/24 06:35:40;;;;;;;15.30;12.57;;;2.70;99.90;;;;;;5027479;28;20181;-70
2021/12/24 06:38:06;;;;;;;16.70;12.30;;;2.80;99.90;;;;;;5025404;28;20180;-71
2021/12/24 06:40:33;;;;;;;17.17;12.73;;;2.70;99.90;;;;;;5028423;28;20263;-71
2021/12/24 06:42:59;;;;;;;12.10;10.73;;;2.70;99.90;;;;;;5029764;28;20199;-70
2021/12/24 06:45:26;;;;;;;15.17;11.93;;;2.70;99.90;;;;;;5029775;28;20465;-71
2021/12/24 06:47:53;;;;;;;14.73;11.50;;;2.70;99.90;;;;;;5028539;28;20185;-71
2021/12/24 06:50:19;;;;;;;16.50;10.77;;;2.70;99.90;;;;;;5034475;28;20300;-70
2021/12/24 06:52:45;;;;;;;15.37;11.97;;;2.80;99.90;;;;;;5032939;28;20585;-71
2021/12/24 06:55:11;;;;;;;15.77;12.77;;;2.70;99.90;;;;;;5027149;28;20196;-71
2021/12/24 06:57:39;;;;;;;18.30;13.13;;;2.70;99.90;;;;;;5037020;28;20181;-71
2021/12/24 07:00:06;;;;;;;16.77;14.33;;;2.70;99.90;;;;;;5033948;28;20220;-71
2021/12/24 07:02:32;;;;;;;15.00;12.90;;;2.70;99.90;;;;;;5028118;28;20207;-70
2021/12/24 07:04:57;;;;;;;16.13;13.30;;;2.70;99.90;;;;;;5032664;28;20215;-70
2021/12/24 07:07:23;;;;;;;19.73;14.67;;;2.60;99.90;;;;;;5033861;28;20275;-71
2021/12/24 07:09:48;;;;;;;17.73;13.97;;;2.60;99.90;;;;;;5024503;28;20675;-71
2021/12/24 07:12:15;;;;;;;16.93;13.87;;;2.50;99.90;;;;;;5030077;28;20231;-73
2021/12/24 07:14:42;;;;;;;18.13;14.20;;;2.50;99.90;;;;;;5028930;28;20240;-73
2021/12/24 07:17:08;;;;;;;20.03;13.43;;;2.50;99.90;;;;;;5037486;28;20192;-73
2021/12/24 07:19:34;;;;;;;18.77;13.80;;;2.50;99.90;;;;;;5031444;28;20211;-74
2021/12/24 07:22:01;;;;;;;18.70;14.37;;;2.50;99.90;;;;;;5035318;28;20185;-73
2021/12/24 07:24:26;;;;;;;19.20;14.30;;;2.40;99.90;;;;;;5030104;28;20644;-72
2021/12/24 07:26:52;;;;;;;16.47;12.93;;;2.40;99.90;;;;;;5023883;28;20247;-71
2021/12/24 07:29:18;;;;;;;15.73;12.20;;;2.50;99.90;;;;;;5030301;28;20194;-70
2021/12/24 07:31:43;;;;;;;16.67;14.13;;;2.60;99.90;;;;;;5034368;28;20207;-70
2021/12/24 07:34:09;;;;;;;16.10;12.53;;;2.80;99.90;;;;;;5031944;28;20676;-70
2021/12/24 07:36:35;;;;;;;16.30;13.10;;;2.80;99.90;;;;;;5029144;28;20189;-71
2021/12/24 07:39:01;;;;;;;17.60;13.97;;;2.90;99.90;;;;;;5029441;28;20188;-71
2021/12/24 07:41:26;;;;;;;18.37;13.73;;;2.90;99.90;;;;;;5031232;28;20192;-69
2021/12/24 07:43:52;;;;;;;17.17;13.37;;;2.90;99.90;;;;;;5029582;28;20212;-70
2021/12/24 07:46:19;;;;;;;18.90;14.83;;;2.80;99.90;;;;;;5027930;28;20196;-70
2021/12/24 07:48:48;;;;;;;18.10;13.87;;;2.80;99.90;;;;;;5030101;28;20243;-70
2021/12/24 07:54:00;;;;;;;18.27;13.13;;;2.90;99.90;;;;;;5028328;28;20287;-70
2021/12/24 07:56:31;;;;;;;18.47;13.30;;;3.00;99.90;;;;;;5025933;28;20264;-71
2021/12/24 07:58:57;;;;;;;17.87;13.60;;;3.10;99.90;;;;;;5029932;28;20212;-70
2021/12/24 08:01:24;;;;;;;16.13;13.80;;;3.10;99.90;;;;;;5026127;28;20200;-71
2021/12/24 08:03:54;;;;;;;17.70;12.50;;;3.00;99.90;;;;;;5031623;28;20199;-70
2021/12/24 08:06:23;;;;;;;19.60;13.47;;;3.00;99.90;;;;;;5024899;28;20188;-71
2021/12/24 08:08:48;;;;;;;17.97;12.00;;;3.00;99.90;;;;;;5026217;28;20200;-70
2021/12/24 08:11:14;;;;;;;16.20;11.83;;;3.10;99.90;;;;;;5028942;28;20569;-72
2021/12/24 08:13:41;;;;;;;17.87;13.00;;;3.30;99.90;;;;;;5028231;28;20667;-72
2021/12/24 08:16:06;;;;;;;16.80;12.90;;;3.40;99.90;;;;;;5024070;28;20268;-72
2021/12/24 08:18:32;;;;;;;14.20;12.00;;;3.40;99.90;;;;;;5031428;28;20742;-72
2021/12/24 08:20:58;;;;;;;16.47;13.07;;;3.50;99.90;;;;;;5030577;28;20205;-72
2021/12/24 08:23:23;;;;;;;13.80;11.33;;;3.50;99.90;;;;;;5027515;28;20561;-71
2021/12/24 08:25:53;;;;;;;14.77;12.53;;;3.50;99.90;;;;;;5023666;28;20185;-71
2021/12/24 08:28:19;;;;;;;14.83;12.17;;;3.60;99.90;;;;;;5036068;28;20176;-71
2021/12/24 08:30:45;;;;;;;15.40;12.50;;;3.70;99.90;;;;;;5028317;28;20694;-71
2021/12/24 08:33:14;;;;;;;15.57;12.77;;;3.70;99.90;;;;;;5034144;28;20220;-72
2021/12/24 08:35:40;;;;;;;13.50;12.07;;;3.80;99.90;;;;;;5029898;28;20640;-72
2021/12/24 08:38:06;;;;;;;16.80;12.80;;;3.90;99.90;;;;;;5037090;28;20246;-71
2021/12/24 08:40:31;;;;;;;17.17;13.70;;;4.10;99.90;;;;;;5030406;28;20680;-71
2021/12/24 08:42:57;;;;;;;14.67;11.17;;;4.00;99.90;;;;;;5028923;28;20244;-71
2021/12/24 08:45:23;;;;;;;14.60;12.70;;;4.10;99.90;;;;;;5030035;28;20188;-72
2021/12/24 08:47:48;;;;;;;14.67;11.67;;;4.30;99.90;;;;;;5031661;28;20236;-71
2021/12/24 08:50:14;;;;;;;10.00;7.67;;;4.40;99.90;;;;;;5033631;28;20254;-71
2021/12/24 08:52:42;;;;;;;14.83;10.87;;;4.60;99.90;;;;;;5055790;28;20208;-70
2021/12/24 08:55:09;;;;;;;13.37;11.57;;;4.70;99.90;;;;;;5033861;28;20204;-72
2021/12/24 08:57:35;;;;;;;15.17;11.03;;;5.00;99.90;;;;;;5027268;28;20538;-72
2021/12/24 09:00:00;;;;;;;13.00;10.80;;;5.10;99.90;;;;;;5027417;28;20674;-71
2021/12/24 09:02:26;;;;;;;16.93;11.10;;;5.20;99.90;;;;;;5022762;28;20264;-71
2021/12/24 09:04:52;;;;;;;11.17;9.43;;;5.30;99.90;;;;;;5027491;28;20192;-71
2021/12/24 09:07:17;;;;;;;11.75;9.15;;;5.30;99.90;;;;;;5022811;28;20203;-71
2021/12/24 09:09:43;;;;;;;11.82;9.15;;;5.40;99.90;;;;;;5035796;28;20212;-73
2021/12/24 09:12:09;;;;;;;10.20;8.73;;;5.40;99.90;;;;;;5026581;28;20222;-72
2021/12/24 09:14:34;;;;;;;10.10;8.70;;;5.50;99.90;;;;;;5032335;28;20267;-71
2021/12/24 09:17:02;;;;;;;10.37;7.43;;;5.40;99.90;;;;;;5036071;28;20192;-71
2021/12/24 09:19:29;;;;;;;10.38;8.63;;;5.50;99.90;;;;;;5038162;28;20193;-72
2021/12/24 09:21:57;;;;;;;10.57;8.57;;;5.40;99.90;;;;;;5019775;28;20556;-71
2021/12/24 09:24:24;;;;;;;10.60;8.38;;;5.30;99.90;;;;;;5029976;28;20550;-71
2021/12/24 09:26:54;;;;;;;10.77;8.40;;;5.50;99.90;;;;;;5032323;28;20586;-73
2021/12/24 09:29:20;;;;;;;12.80;9.68;;;5.60;99.90;;;;;;5029781;28;20554;-73
2021/12/24 09:31:45;;;;;;;12.13;8.63;;;5.60;99.90;;;;;;5028055;28;20266;-72
2021/12/24 09:34:13;;;;;;;11.27;7.78;;;5.50;99.90;;;;;;5028529;28;20180;-71
2021/12/24 09:36:39;;;;;;;9.85;8.85;;;5.60;99.90;;;;;;5028721;28;20750;-71
2021/12/24 09:39:05;;;;;;;7.80;6.90;;;5.60;99.90;;;;;;5027999;28;20184;-71
2021/12/24 09:41:32;;;;;;;8.98;6.57;;;5.90;99.90;;;;;;5033763;28;20226;-70
2021/12/24 09:44:00;;;;;;;7.35;6.65;;;5.90;99.90;;;;;;5031049;28;20192;-70
2021/12/24 09:46:28;;;;;;;7.57;5.72;;;6.00;99.90;;;;;;5026124;28;20234;-72
2021/12/24 09:48:55;;;;;;;6.25;5.70;;;6.10;99.90;;;;;;5031873;28;20238;-70
2021/12/24 09:51:26;;;;;;;5.07;4.60;;;6.30;99.90;;;;;;5034357;28;20211;-71
2021/12/24 09:53:53;;;;;;;6.13;5.38;;;6.30;99.90;;;;;;5034809;28;20180;-72
2021/12/24 09:56:21;;;;;;;8.20;4.75;;;6.40;99.90;;;;;;5020145;28;20215;-73
2021/12/24 09:58:46;;;;;;;4.40;4.00;;;6.50;99.90;;;;;;5019698;28;20477;-72
2021/12/24 10:01:32;;;;;;;4.45;4.05;;;6.60;99.90;;;;;;5027158;28;20314;-72
2021/12/24 10:04:03;;;;;;;4.90;4.40;;;6.50;99.90;;;;;;5023415;28;20185;-73
2021/12/24 10:06:29;;;;;;;5.00;4.60;;;6.50;99.90;;;;;;5025590;28;20177;-73
2021/12/24 10:09:08;;;;;;;6.47;4.47;;;6.60;99.90;;;;;;5022684;28;20189;-72
2021/12/24 10:11:47;;;;;;;5.85;5.25;;;6.70;99.90;;;;;;5024860;28;20219;-72
2021/12/24 10:14:14;;;;;;;4.65;4.25;;;6.70;99.90;;;;;;5022245;28;20176;-72
2021/12/24 10:16:48;;;;;;;5.65;4.25;;;6.70;99.90;;;;;;5026848;28;20177;-72
2021/12/24 10:19:14;;;;;;;4.47;4.07;;;6.60;99.90;;;;;;5025119;28;20200;-72
2021/12/24 10:21:41;;;;;;;4.13;3.67;;;6.70;99.90;;;;;;5026306;28;20239;-72
2021/12/24 10:24:17;;;;;;;7.30;4.85;;;6.70;99.90;;;;;;5027094;28;20195;-73
2021/12/24 10:26:46;;;;;;;5.10;4.60;;;6.70;99.90;;;;;;5031641;28;20186;-72
2021/12/24 10:29:16;;;;;;;5.03;4.47;;;6.60;99.90;;;;;;5028346;28;20207;-72
2021/12/24 10:31:51;;;;;;;4.82;4.07;;;6.50;99.90;;;;;;5032108;28;20201;-72
2021/12/24 10:34:18;;;;;;;4.75;4.35;;;6.50;99.90;;;;;;5031773;28;20211;-71
2021/12/24 10:36:54;;;;;;;4.60;4.20;;;6.60;99.90;;;;;;5033337;28;20195;-72
2021/12/24 10:39:23;;;;;;;4.97;4.43;;;6.60;99.90;;;;;;5031642;28;20200;-71
2021/12/24 10:41:51;;;;;;;4.53;4.13;;;6.70;99.90;;;;;;5028397;28;20181;-71
2021/12/24 10:44:32;;;;;;;8.00;3.92;;;6.80;99.90;;;;;;5029719;28;20176;-71
2021/12/24 10:47:06;;;;;;;5.65;3.92;;;6.90;99.90;;;;;;5029261;28;21579;-71
2021/12/24 10:52:15;;;;;;;4.10;3.72;;;6.90;99.90;;;;;;5025670;28;20208;-70
2021/12/24 10:55:06;;;;;;;4.88;4.32;;;6.90;99.90;;;;;;5027256;28;20180;-70
2021/12/24 10:57:34;;;;;;;4.38;3.97;;;6.80;99.90;;;;;;5027751;28;20189;-71
2021/12/24 11:00:13;;;;;;;4.55;3.65;;;6.90;99.90;;;;;;5020775;28;20216;-70
2021/12/24 11:02:39;;;;;;;3.90;3.60;;;6.90;99.90;;;;;;5022923;28;20172;-70
2021/12/24 11:05:22;;;;;;;4.18;3.78;;;7.10;99.90;;;;;;5032789;28;20180;-70
2021/12/24 11:07:48;;;;;;;4.80;4.35;;;7.10;99.90;;;;;;5035420;28;20184;-70
2021/12/24 11:10:19;;;;;;;4.55;4.05;;;7.00;99.90;;;;;;5033753;28;20633;-70
2021/12/24 11:12:50;;;;;;;4.43;4.03;;;6.90;99.90;;;;;;5031849;28;20258;-69
2021/12/24 11:15:38;;;;;;;4.93;4.20;;;7.00;99.90;;;;;;5032064;28;20181;-70
2021/12/24 11:18:14;;;;;;;4.93;4.40;;;7.00;99.90;;;;;;5032364;28;20173;-69
2021/12/24 11:20:40;;;;;;;4.43;3.63;;;7.10;99.90;;;;;;5042983;28;20207;-71
2021/12/24 11:23:16;;;;;;;5.10;4.63;;;7.10;99.90;;;;;;5035595;28;20185;-71
2021/12/24 11:25:44;;;;;;;4.50;3.58;;;7.20;99.90;;;;;;5035704;28;20176;-70
2021/12/24 11:28:11;;;;;;;3.85;3.55;;;7.20;99.90;;;;;;5036262;28;20184;-71
2021/12/24 11:30:39;;;;;;;4.65;4.28;;;7.20;99.90;;;;;;5029415;28;20204;-69
2021/12/24 11:33:05;;;;;;;4.38;4.07;;;7.30;99.90;;;;;;5025382;28;20173;-71
2021/12/24 11:35:32;;;;;;;4.50;4.10;;;7.30;99.90;;;;;;5026377;28;20239;-72
2021/12/24 11:37:59;;;;;;;4.10;3.63;;;7.40;99.90;;;;;;5024892;28;20181;-71
2021/12/24 11:40:26;;;;;;;4.68;3.83;;;7.50;99.90;;;;;;5032226;28;20204;-71
2021/12/24 11:42:57;;;;;;;4.05;3.55;;;7.60;99.90;;;;;;5025867;28;20185;-71
2021/12/24 11:45:24;;;;;;;4.18;3.78;;;7.60;99.90;;;;;;5021497;28;20588;-71
2021/12/24 11:47:51;;;;;;;4.40;4.00;;;7.60;99.90;;;;;;5018818;28;20189;-71
2021/12/24 11:50:17;;;;;;;4.28;3.88;;;7.60;99.90;;;;;;5020467;28;20216;-70
2021/12/24 11:52:46;;;;;;;6.55;3.70;;;7.60;99.90;;;;;;5024670;28;20651;-71
2021/12/24 11:55:12;;;;;;;3.38;3.08;;;7.50;99.90;;;;;;5025121;28;20636;-71
2021/12/24 11:58:00;;;;;;;4.00;3.53;;;7.60;99.90;;;;;;5023468;28;20223;-72
2021/12/24 12:00:39;;;;;;;3.88;3.53;;;7.60;99.90;;;;;;5026547;28;20735;-70
2021/12/24 12:03:06;;;;;;;4.97;4.45;;;7.60;99.90;;;;;;5023538;28;20229;-70
2021/12/24 12:05:37;;;;;;;5.15;4.20;;;7.50;99.90;;;;;;5018277;28;20181;-70
2021/12/24 12:08:33;;;;;;;4.03;3.72;;;7.40;99.90;;;;;;5026272;28;20689;-70
2021/12/24 12:11:15;;;;;;;4.22;3.83;;;7.30;99.90;;;;;;5032814;28;20622;-72
2021/12/24 12:13:51;;;;;;;4.90;3.90;;;7.20;99.90;;;;;;5029716;28;20204;-71
2021/12/24 12:16:43;;;;;;;4.43;3.97;;;7.20;99.90;;;;;;5030119;28;20220;-72
2021/12/24 12:19:57;;;;;;;4.18;3.88;;;7.20;99.90;;;;;;5024402;28;20703;-72
2021/12/24 12:22:15;;;;;;;3.72;3.00;;;7.20;99.90;;;;;;5034540;28;20656;-72
2021/12/24 12:27:26;;;;;;;3.85;3.55;;;7.40;99.90;;;;;;5027717;28;20189;-70
2021/12/24 12:29:52;;;;;;;4.90;3.80;;;7.40;99.90;;;;;;5026567;28;20210;-70
2021/12/24 12:32:17;;;;;;;4.68;3.28;;;7.30;99.90;;;;;;5031241;28;20205;-70
2021/12/24 12:34:43;;;;;;;4.25;3.78;;;7.40;99.90;;;;;;5036357;28;20595;-72
2021/12/24 12:37:16;;;;;;;5.50;4.22;;;7.30;99.90;;;;;;5031733;28;20563;-70
2021/12/24 12:39:43;;;;;;;4.38;3.97;;;7.20;99.90;;;;;;5036426;28;20230;-70
2021/12/24 12:42:09;;;;;;;4.15;3.75;;;7.20;99.90;;;;;;5034934;28;20220;-74
2021/12/24 12:44:39;;;;;;;4.10;3.63;;;7.20;99.90;;;;;;5029594;28;20208;-71
2021/12/24 12:47:14;;;;;;;5.03;4.53;;;7.20;99.90;;;;;;5031299;28;20246;-73
2021/12/24 12:49:40;;;;;;;4.85;4.43;;;7.20;99.90;;;;;;5039831;28;20257;-72
2021/12/24 12:52:20;;;;;;;4.82;4.43;;;7.10;99.90;;;;;;5031456;28;20208;-72
2021/12/24 12:54:52;;;;;;;7.28;4.53;;;6.90;99.90;;;;;;5025854;28;20590;-73
2021/12/24 12:57:28;;;;;;;4.32;3.92;;;6.90;99.90;;;;;;5028497;28;20180;-71
2021/12/24 13:00:12;;;;;;;4.68;3.92;;;6.90;99.90;;;;;;5022397;28;20679;-71
2021/12/24 13:05:52;;;;;;;5.15;4.65;;;7.00;99.90;;;;;;5037572;28;20207;-71
2021/12/24 13:08:21;;;;;;;6.72;5.32;;;7.00;99.90;;;;;;5025438;28;20192;-71
2021/12/24 13:10:57;;;;;;;5.25;4.47;;;6.90;99.90;;;;;;5031628;28;20208;-71
2021/12/24 13:13:23;;;;;;;4.13;3.67;;;6.90;99.90;;;;;;5026570;28;20727;-72
2021/12/24 13:15:49;;;;;;;4.07;3.70;;;6.90;99.90;;;;;;5032182;28;20275;-72
2021/12/24 13:18:24;;;;;;;5.13;4.63;;;6.90;99.90;;;;;;5029438;28;20255;-72
2021/12/24 13:23:43;;;;;;;4.07;3.65;;;6.80;99.90;;;;;;5038728;28;20183;-72
2021/12/24 13:26:15;;;;;;;5.43;3.97;;;6.80;99.90;;;;;;5034871;28;20272;-72
2021/12/24 13:29:11;;;;;;;4.50;4.10;;;6.80;99.90;;;;;;5019166;28;20545;-72
2021/12/24 13:31:36;;;;;;;4.45;4.05;;;6.80;99.90;;;;;;5030091;28;20208;-73
2021/12/24 13:34:12;;;;;;;3.42;3.13;;;6.80;99.90;;;;;;5037548;28;20186;-76
2021/12/24 13:36:38;;;;;;;3.90;3.60;;;6.80;99.90;;;;;;5034987;28;20647;-75
2021/12/24 13:39:12;;;;;;;4.78;4.22;;;6.90;99.90;;;;;;5031580;28;20180;-76
2021/12/24 13:41:40;;;;;;;5.25;3.92;;;6.90;99.90;;;;;;5026911;28;20175;-75
2021/12/24 13:44:07;;;;;;;4.55;4.15;;;6.90;99.90;;;;;;5032264;28;20177;-75
2021/12/24 13:46:36;;;;;;;5.38;4.90;;;6.90;99.90;;;;;;5033413;28;20819;-73
2021/12/24 13:49:23;;;;;;;5.40;4.90;;;6.90;99.90;;;;;;5018115;28;20223;-74
2021/12/24 13:54:36;;;;;;;6.25;3.50;;;6.90;99.90;;;;;;5027592;28;20203;-73
2021/12/24 13:57:05;;;;;;;4.95;4.55;;;6.90;99.90;;;;;;5029644;28;20187;-76
2021/12/24 13:59:31;;;;;;;4.90;4.50;;;7.00;99.90;;;;;;5027393;28;20200;-75
2021/12/24 14:01:57;;;;;;;4.38;4.03;;;6.90;99.90;;;;;;5028564;28;20288;-75
2021/12/24 14:04:23;;;;;;;4.10;3.80;;;6.90;99.90;;;;;;5026591;28;20568;-76
2021/12/24 14:06:54;;;;;;;6.25;4.53;;;6.90;99.90;;;;;;5028137;28;20189;-75
2021/12/24 14:09:23;;;;;;;4.30;3.83;;;6.90;99.90;;;;;;5026191;28;20667;-74
2021/12/24 14:11:51;;;;;;;4.97;4.47;;;6.90;99.90;;;;;;5032902;28;20214;-74
2021/12/24 14:14:24;;;;;;;5.00;4.47;;;7.00;99.90;;;;;;5028730;28;20168;-74
2021/12/24 14:19:49;;;;;;;5.18;4.43;;;7.10;99.90;;;;;;5032361;28;20266;-75
2021/12/24 14:22:16;;;;;;;4.82;4.40;;;7.00;99.90;;;;;;5030291;28;20227;-74
2021/12/24 14:25:08;;;;;;;7.70;4.57;;;7.00;99.90;;;;;;5023906;28;20647;-75
2021/12/24 14:27:35;;;;;;;5.00;4.50;;;7.00;99.90;;;;;;5025334;28;20207;-75
2021/12/24 14:30:04;;;;;;;4.90;4.28;;;6.90;99.90;;;;;;5020658;28;20203;-73
2021/12/24 14:32:33;;;;;;;7.28;4.78;;;6.80;99.90;;;;;;5026467;28;20239;-73
2021/12/24 14:35:15;;;;;;;5.90;4.78;;;6.80;99.90;;;;;;5028475;28;20719;-74
2021/12/24 14:38:03;;;;;;;4.32;4.03;;;6.80;99.90;;;;;;5028860;28;20644;-72
2021/12/24 14:40:32;;;;;;;4.45;3.65;;;6.70;99.90;;;;;;5034065;28;20555;-72
2021/12/24 14:42:59;;;;;;;4.57;4.18;;;6.60;99.90;;;;;;5030697;28;20195;-72
2021/12/24 14:45:37;;;;;;;4.60;4.20;;;6.70;99.90;;;;;;5021502;28;20189;-73
2021/12/24 14:48:24;;;;;;;4.82;4.40;;;6.70;99.90;;;;;;5029568;28;20574;-74